Time;durP1;ratioP1;P1;durP2;ratioP2;P2;SDS_P1;SDS_P2;PMS_P1;PMS_P2;Temp;Humidity;BMP_temperature;BMP_pressure;BME280_temperature;BME280_humidity;BME280_pressure;Samples;Min_cycle;Max_cycle;Signal;HPM_P1;HPM_P2
2023/08/31 00:09:00;;;;;;;6.30;2.50;;;;;;;12.88;68.69;99744.59;20887028;28;20227;-78
2023/08/31 00:19:04;;;;;;;5.95;2.10;;;;;;;12.70;68.97;99734.78;20906634;28;20235;-78
2023/08/31 00:29:05;;;;;;;5.13;2.23;;;;;;;12.72;68.24;99734.44;20898543;28;20740;-78
2023/08/31 00:39:10;;;;;;;5.77;1.93;;;;;;;12.68;68.55;99741.97;20894569;28;20231;-80
2023/08/31 00:49:14;;;;;;;4.37;1.97;;;;;;;12.51;68.79;99734.59;20902911;28;20223;-79
2023/08/31 00:59:17;;;;;;;3.28;1.90;;;;;;;12.40;68.43;99739.88;20917602;28;20980;-80
2023/08/31 01:09:29;;;;;;;7.17;2.13;;;;;;;12.48;68.96;99740.91;20920749;28;20387;-79
2023/08/31 01:19:41;;;;;;;4.88;2.42;;;;;;;12.76;67.93;99744.63;20901579;28;20223;-79
2023/08/31 01:29:44;;;;;;;4.90;2.30;;;;;;;12.06;69.87;99744.03;20907326;28;20620;-78
2023/08/31 01:39:48;;;;;;;4.40;2.20;;;;;;;11.79;70.98;99739.94;20928399;28;20694;-79
2023/08/31 01:49:51;;;;;;;4.07;2.53;;;;;;;11.81;70.17;99739.59;20926896;28;20215;-78
2023/08/31 01:59:55;;;;;;;7.07;2.27;;;;;;;11.94;69.27;99754.50;20920034;28;20207;-79
2023/08/31 02:09:58;;;;;;;4.90;2.53;;;;;;;11.99;68.67;99768.34;20933564;28;20226;-79
2023/08/31 02:20:01;;;;;;;7.03;2.27;;;;;;;11.40;70.29;99757.47;20952003;28;20207;-79
2023/08/31 02:30:05;;;;;;;6.83;2.80;;;;;;;12.00;68.07;99765.19;20952513;28;20272;-79
2023/08/31 02:40:08;;;;;;;7.22;2.83;;;;;;;11.63;70.57;99769.97;20944132;28;20227;-78
2023/08/31 02:50:12;;;;;;;4.60;2.77;;;;;;;11.55;69.76;99771.69;20919149;28;20262;-79
2023/08/31 03:00:15;;;;;;;4.55;3.00;;;;;;;11.35;70.90;99769.75;20909259;28;20290;-79
2023/08/31 03:10:18;;;;;;;4.30;3.80;;;;;;;11.16;71.25;99761.03;20913506;28;20220;-79
2023/08/31 03:20:20;;;;;;;7.00;4.30;;;;;;;11.76;69.00;99770.81;20939364;28;20635;-79
2023/08/31 03:30:23;;;;;;;7.57;4.47;;;;;;;11.18;71.83;99786.81;20917881;28;20238;-78
2023/08/31 03:40:24;;;;;;;7.20;4.23;;;;;;;11.33;70.58;99786.19;20934419;28;20318;-78
2023/08/31 03:50:27;;;;;;;7.23;5.30;;;;;;;10.77;72.81;99777.28;20915904;28;20222;-78
2023/08/31 04:00:29;;;;;;;10.30;5.37;;;;;;;11.37;70.89;99775.88;20916994;28;20294;-78
2023/08/31 04:10:33;;;;;;;9.20;6.60;;;;;;;11.48;71.20;99791.16;20920076;28;20503;-78
2023/08/31 04:20:34;;;;;;;8.70;6.00;;;;;;;11.45;71.88;99800.31;20920380;28;20633;-78
2023/08/31 04:30:37;;;;;;;7.95;7.03;;;;;;;11.37;71.38;99806.88;20914168;28;20310;-79
2023/08/31 04:40:39;;;;;;;10.20;7.53;;;;;;;11.31;70.87;99808.22;20902678;28;20223;-78
2023/08/31 04:50:42;;;;;;;9.47;7.27;;;;;;;11.07;71.94;99805.31;20899032;28;20221;-79
2023/08/31 05:00:45;;;;;;;10.53;8.57;;;;;;;11.33;70.18;99819.97;20891097;28;20196;-78
2023/08/31 05:10:48;;;;;;;10.30;8.90;;;;;;;11.88;68.63;99822.41;20898477;28;20222;-78
2023/08/31 05:20:49;;;;;;;11.98;8.93;;;;;;;11.88;68.47;99853.41;20905757;28;20211;-78
2023/08/31 05:30:54;;;;;;;12.47;7.70;;;;;;;11.88;69.36;99864.69;20888662;28;20294;-78
2023/08/31 05:41:06;;;;;;;11.57;8.73;;;;;;;11.56;70.38;99868.34;20888951;28;20579;-78
2023/08/31 05:51:09;;;;;;;9.60;8.60;;;;;;;11.65;70.24;99871.91;20905145;28;20219;-78
2023/08/31 06:01:10;;;;;;;14.27;9.87;;;;;;;11.23;71.87;99893.66;20906797;28;20581;-78
2023/08/31 06:11:14;;;;;;;13.50;10.20;;;;;;;11.54;72.13;99898.84;20931530;28;20289;-78
2023/08/31 06:21:16;;;;;;;14.93;9.20;;;;;;;11.74;71.49;99902.81;20934970;28;20282;-78
2023/08/31 06:31:19;;;;;;;11.33;8.53;;;;;;;11.98;71.25;99905.69;20932289;28;20685;-78
2023/08/31 06:41:20;;;;;;;9.95;8.15;;;;;;;11.47;72.58;99909.84;20923380;28;20310;-78
2023/08/31 06:51:24;;;;;;;12.87;8.30;;;;;;;12.46;69.46;99892.84;20929618;28;20495;-78
2023/08/31 07:01:26;;;;;;;11.50;7.10;;;;;;;12.32;69.81;99906.47;20913709;28;20206;-78
2023/08/31 07:11:29;;;;;;;5.90;5.20;;;;;;;12.22;70.15;99925.50;20911304;28;20224;-78
2023/08/31 07:21:31;;;;;;;6.67;5.33;;;;;;;12.66;68.60;99908.03;20914984;28;20235;-78
2023/08/31 07:31:35;;;;;;;6.43;4.43;;;;;;;12.36;67.91;99913.03;20914331;28;20223;-79
2023/08/31 07:41:36;;;;;;;4.05;3.30;;;;;;;12.48;67.59;99921.53;20916428;28;20259;-78
2023/08/31 07:51:39;;;;;;;4.00;2.85;;;;;;;13.66;63.51;99910.78;20930047;28;20221;-79
2023/08/31 08:01:41;;;;;;;2.72;1.70;;;;;;;14.16;62.25;99931.94;20924266;28;20202;-79
2023/08/31 08:11:45;;;;;;;4.78;1.75;;;;;;;14.53;60.08;99943.91;20912850;28;20267;-79
2023/08/31 08:21:46;;;;;;;3.20;1.52;;;;;;;14.38;60.02;99948.38;20914187;28;20192;-79
2023/08/31 08:31:49;;;;;;;3.45;1.20;;;;;;;14.86;57.84;99946.34;20914941;28;20234;-79
2023/08/31 08:41:52;;;;;;;2.72;1.15;;;;;;;14.42;57.24;99947.66;20916321;28;20362;-79
2023/08/31 08:51:55;;;;;;;3.35;0.93;;;;;;;15.23;54.90;99949.66;20932410;28;20624;-80
2023/08/31 09:01:56;;;;;;;3.33;1.00;;;;;;;15.59;55.20;99944.81;20931079;28;20214;-79
2023/08/31 09:12:07;;;;;;;1.73;0.82;;;;;;;16.17;54.15;99943.59;20939337;28;20212;-80
2023/08/31 09:22:11;;;;;;;4.65;1.48;;;;;;;15.78;55.26;99976.03;20927242;28;20199;-79
2023/08/31 09:32:18;;;;;;;4.72;1.20;;;;;;;16.11;53.01;99949.94;20925462;28;20302;-79
2023/08/31 09:42:20;;;;;;;5.35;0.90;;;;;;;15.28;53.74;99969.25;20926670;28;20625;-79
2023/08/31 09:52:23;;;;;;;1.00;0.88;;;;;;;15.56;52.54;99963.41;20926246;28;20319;-79
2023/08/31 10:02:25;;;;;;;4.15;1.05;;;;;;;15.46;52.61;99946.94;20926369;28;20286;-80
2023/08/31 10:12:29;;;;;;;0.93;0.60;;;;;;;16.27;49.65;99964.84;20920564;28;20219;-80
2023/08/31 10:22:32;;;;;;;1.63;0.70;;;;;;;16.50;47.09;99970.56;20921583;28;20461;-80
2023/08/31 10:32:35;;;;;;;2.15;0.65;;;;;;;16.40;46.39;99957.81;20934135;28;20251;-80
2023/08/31 10:42:43;;;;;;;2.78;0.90;;;;;;;16.89;45.87;99961.94;20982516;28;20235;-80
2023/08/31 10:52:46;;;;;;;2.92;0.73;;;;;;;17.48;44.25;99949.88;20947716;28;20224;-81
2023/08/31 11:02:49;;;;;;;1.95;0.60;;;;;;;17.57;43.76;99944.69;20922215;28;20287;-81
2023/08/31 11:12:54;;;;;;;1.52;0.63;;;;;;;17.74;41.25;99952.66;20933269;28;20498;-82
2023/08/31 11:22:56;;;;;;;0.88;0.50;;;;;;;17.77;42.88;99949.03;20921100;28;20623;-81
2023/08/31 11:33:03;;;;;;;3.67;0.70;;;;;;;18.35;42.92;99937.09;20919739;28;20224;-81
2023/08/31 11:43:06;;;;;;;1.38;0.52;;;;;;;18.20;41.41;99935.31;20917154;28;20223;-82
2023/08/31 11:53:09;;;;;;;2.22;0.98;;;;;;;18.35;40.32;99933.44;20893531;28;20494;-82
2023/08/31 12:03:11;;;;;;;0.75;0.60;;;;;;;17.42;43.66;99935.16;20954304;28;20328;-82
2023/08/31 12:13:14;;;;;;;2.78;0.80;;;;;;;18.27;40.55;99924.00;20908458;28;20223;-81
2023/08/31 12:23:16;;;;;;;3.38;0.77;;;;;;;19.03;39.27;99930.00;20907761;28;20210;-82
2023/08/31 12:33:20;;;;;;;1.58;0.80;;;;;;;18.02;39.57;99942.84;20890393;28;20223;-81
2023/08/31 12:43:22;;;;;;;3.70;1.00;;;;;;;18.16;41.74;99941.00;20920485;28;20323;-79
2023/08/31 12:53:25;;;;;;;1.77;0.77;;;;;;;18.75;41.70;99944.03;20923946;28;20330;-81
2023/08/31 13:03:26;;;;;;;5.78;0.80;;;;;;;18.58;42.90;99932.03;20924252;28;20489;-81
2023/08/31 13:13:31;;;;;;;1.67;0.60;;;;;;;18.25;40.83;99954.91;20924666;28;20228;-82
2023/08/31 13:23:32;;;;;;;1.88;0.63;;;;;;;18.50;41.62;99941.75;20917485;28;20531;-82
2023/08/31 13:33:36;;;;;;;2.53;1.23;;;;;;;17.95;42.65;99935.03;20931326;28;20226;-82
2023/08/31 13:43:37;;;;;;;2.97;1.00;;;;;;;18.96;41.32;99944.22;20942570;28;20219;-80
2023/08/31 13:53:40;;;;;;;1.65;0.60;;;;;;;18.62;41.33;99943.50;20942823;28;20631;-80
2023/08/31 14:03:43;;;;;;;3.55;0.88;;;;;;;18.39;43.84;99949.38;20932908;28;20290;-81
2023/08/31 14:13:46;;;;;;;6.43;1.10;;;;;;;18.11;42.59;99940.50;20910488;28;20238;-79
2023/08/31 14:23:48;;;;;;;2.55;0.70;;;;;;;19.08;40.03;99932.50;20928008;28;20196;-79
2023/08/31 14:33:53;;;;;;;2.22;0.93;;;;;;;18.22;41.89;99950.00;20921286;28;20230;-80
2023/08/31 14:43:55;;;;;;;2.47;1.00;;;;;;;18.83;39.68;99960.00;20891799;28;20220;-80
2023/08/31 14:53:58;;;;;;;2.97;1.15;;;;;;;15.94;54.50;100036.38;20855138;28;20216;-82
2023/08/31 15:04:00;;;;;;;6.22;3.22;;;;;;;14.14;71.19;100095.66;20859936;28;20210;-79
2023/08/31 15:14:04;;;;;;;5.80;3.50;;;;;;;14.50;70.58;100069.22;20850797;28;20501;-79
2023/08/31 15:24:06;;;;;;;5.83;2.73;;;;;;;14.95;67.89;100046.13;20847231;28;20204;-81
2023/08/31 15:34:12;;;;;;;5.40;3.05;;;;;;;15.45;66.94;100048.22;20835926;28;20223;-80
2023/08/31 15:44:13;;;;;;;2.92;2.72;;;;;;;15.24;67.79;100058.22;20874711;28;20237;-80
2023/08/31 15:54:16;;;;;;;2.95;2.60;;;;;;;15.38;66.26;100047.22;20893029;28;20226;-80
2023/08/31 16:04:18;;;;;;;5.50;3.42;;;;;;;16.00;67.65;100056.75;20880390;28;20206;-78
2023/08/31 16:14:21;;;;;;;4.95;3.40;;;;;;;15.89;67.71;100056.53;20859162;28;20227;-80
2023/08/31 16:24:23;;;;;;;8.38;5.60;;;;;;;15.52;70.06;100058.91;20858303;28;20196;-79
2023/08/31 16:34:27;;;;;;;4.55;2.97;;;;;;;14.97;67.06;100068.44;20843426;28;20231;-79
2023/08/31 16:44:29;;;;;;;4.25;3.25;;;;;;;15.93;65.33;100062.31;20875041;28;20232;-79
2023/08/31 16:54:32;;;;;;;4.40;3.25;;;;;;;15.86;67.88;100070.63;20876052;28;20252;-80
2023/08/31 17:04:34;;;;;;;9.73;5.20;;;;;;;15.30;70.12;100079.44;20902050;28;20204;-82
2023/08/31 17:14:37;;;;;;;4.68;4.18;;;;;;;16.08;68.24;100087.78;20902519;28;20512;-79
2023/08/31 17:24:39;;;;;;;5.82;5.32;;;;;;;15.45;69.02;100081.44;20905416;28;20203;-80
2023/08/31 17:34:42;;;;;;;7.03;5.68;;;;;;;15.13;69.25;100063.63;20896384;28;20369;-80
2023/08/31 17:44:45;;;;;;;7.18;5.47;;;;;;;15.29;69.78;100077.78;20888847;28;20247;-82
2023/08/31 17:54:49;;;;;;;11.32;6.78;;;;;;;15.03;72.77;100103.84;20900083;28;20278;-81
2023/08/31 18:04:51;;;;;;;5.93;5.03;;;;;;;15.17;71.36;100103.41;20926787;28;20210;-82
2023/08/31 18:14:55;;;;;;;10.27;6.00;;;;;;;14.95;73.08;100108.47;20918391;28;20672;-81
2023/08/31 18:24:58;;;;;;;8.65;6.75;;;;;;;14.79;73.18;100127.47;20930538;28;20192;-82
2023/08/31 18:35:01;;;;;;;7.90;5.95;;;;;;;15.14;71.69;100138.13;20921033;28;20253;-82
2023/08/31 18:45:04;;;;;;;7.20;5.70;;;;;;;14.84;72.61;100132.84;21199584;22;20327;-80
2023/08/31 18:55:10;;;;;;;10.90;5.88;;;;;;;14.77;74.26;100135.50;20882693;28;20265;-79
2023/08/31 19:05:14;;;;;;;9.07;6.63;;;;;;;15.09;72.31;100130.72;20887314;28;20274;-79
2023/08/31 19:15:18;;;;;;;7.05;5.80;;;;;;;15.10;72.29;100136.03;20884310;28;20220;-80
2023/08/31 19:25:20;;;;;;;7.03;5.45;;;;;;;14.67;72.98;100138.88;20893679;28;20203;-79
2023/08/31 19:35:23;;;;;;;7.32;5.32;;;;;;;14.30;74.26;100143.81;20888983;28;20231;-80
2023/08/31 19:45:26;;;;;;;6.40;5.72;;;;;;;14.78;70.83;100134.31;20886296;28;20220;-78
2023/08/31 19:55:29;;;;;;;6.28;5.68;;;;;;;14.44;72.04;100143.44;20899508;28;20220;-78
2023/08/31 20:05:30;;;;;;;8.55;5.43;;;;;;;14.15;73.00;100148.22;20890272;28;20196;-79
2023/08/31 20:15:34;;;;;;;7.97;5.20;;;;;;;14.28;72.22;100144.22;20884964;28;20219;-78
2023/08/31 20:25:35;;;;;;;12.05;5.82;;;;;;;14.18;72.02;100158.81;20881227;28;20227;-77
2023/08/31 20:35:39;;;;;;;6.10;5.47;;;;;;;14.31;70.98;100160.47;20887173;28;20226;-79
2023/08/31 20:45:41;;;;;;;10.68;5.70;;;;;;;14.20;70.96;100150.00;20919960;28;20219;-79
2023/08/31 20:55:44;;;;;;;7.68;6.00;;;;;;;14.05;70.91;100165.69;20915989;28;20298;-79
2023/08/31 21:05:46;;;;;;;9.73;6.53;;;;;;;14.19;70.06;100171.81;20922434;28;20214;-78
2023/08/31 21:15:49;;;;;;;8.03;5.77;;;;;;;13.81;71.23;100171.38;20913481;28;20219;-77
2023/08/31 21:25:52;;;;;;;8.30;5.97;;;;;;;14.18;70.15;100167.31;20917063;28;20222;-78
2023/08/31 21:35:55;;;;;;;8.57;5.82;;;;;;;13.94;70.32;100170.19;20915372;28;20515;-79
2023/08/31 21:45:58;;;;;;;5.85;4.82;;;;;;;13.98;70.00;100165.47;20915349;28;20219;-77
2023/08/31 21:56:06;;;;;;;6.47;4.40;;;;;;;14.01;69.30;100176.09;20913476;28;20226;-81
2023/08/31 22:06:08;;;;;;;7.13;4.90;;;;;;;14.04;69.00;100186.66;20908523;28;20199;-80
2023/08/31 22:16:11;;;;;;;7.78;4.70;;;;;;;13.92;69.85;100179.03;20910311;28;20311;-79
2023/08/31 22:26:13;;;;;;;5.15;4.25;;;;;;;14.14;69.50;100177.72;20886357;28;20306;-80
2023/08/31 22:36:16;;;;;;;7.05;4.15;;;;;;;13.86;68.78;100183.28;20872829;28;20343;-80
2023/08/31 22:46:18;;;;;;;8.05;3.78;;;;;;;13.93;69.26;100177.00;20899590;28;20311;-80
2023/08/31 22:56:21;;;;;;;6.53;3.67;;;;;;;13.87;69.13;100184.13;20913751;28;20494;-82
2023/08/31 23:06:23;;;;;;;8.25;3.75;;;;;;;13.12;72.15;100183.56;20902789;28;20203;-79
2023/08/31 23:16:26;;;;;;;7.13;4.30;;;;;;;13.58;69.63;100180.34;20909153;28;20224;-78
2023/08/31 23:26:28;;;;;;;7.30;4.40;;;;;;;13.46;68.91;100183.16;20924662;28;20202;-78
2023/08/31 23:36:31;;;;;;;11.25;4.95;;;;;;;13.19;71.05;100164.03;20905646;28;20227;-79
2023/08/31 23:46:33;;;;;;;7.03;4.73;;;;;;;13.36;69.10;100161.03;20937341;28;20255;-77
2023/08/31 23:56:36;;;;;;;7.20;4.07;;;;;;;12.96;70.50;100172.94;20942826;28;20580;-78
